Time;durP1;ratioP1;P1;durP2;ratioP2;P2;SDS_P1;SDS_P2;PMS_P1;PMS_P2;Temp;Humidity;BMP_temperature;BMP_pressure;BME280_temperature;BME280_humidity;BME280_pressure;Samples;Min_cycle;Max_cycle;Signal;HPM_P1;HPM_P2
2022/10/07 00:01:37;;;;;;;5.53;2.33;;;;;;;7.42;92.64;102417.06;5067277;28;20485;-73
2022/10/07 00:04:04;;;;;;;6.53;2.50;;;;;;;7.40;94.01;102421.09;5072749;28;20489;-71
2022/10/07 00:06:30;;;;;;;6.03;2.70;;;;;;;7.29;95.95;102404.66;5071674;28;20552;-69
2022/10/07 00:09:01;;;;;;;7.33;3.27;;;;;;;7.41;96.02;102411.94;5072833;28;20484;-68
2022/10/07 00:11:28;;;;;;;7.63;2.60;;;;;;;7.49;96.67;102408.88;5073397;28;20457;-68
2022/10/07 00:13:56;;;;;;;8.53;3.40;;;;;;;7.45;97.39;102413.09;5074047;28;20897;-68
2022/10/07 00:16:25;;;;;;;5.60;2.67;;;;;;;7.47;96.74;102410.97;5073419;28;20503;-68
2022/10/07 00:18:53;;;;;;;6.87;2.50;;;;;;;7.46;97.05;102412.03;5072640;28;20465;-68
2022/10/07 00:21:19;;;;;;;6.80;2.67;;;;;;;7.49;96.62;102403.50;5072879;28;20489;-68
2022/10/07 00:23:47;;;;;;;8.40;2.67;;;;;;;7.39;97.81;102398.66;5071292;28;20500;-68
2022/10/07 00:26:18;;;;;;;5.80;2.37;;;;;;;7.52;97.36;102406.50;5071611;28;20863;-68
2022/10/07 00:28:44;;;;;;;7.63;2.90;;;;;;;7.50;97.50;102402.44;5073042;28;20469;-68
2022/10/07 00:31:13;;;;;;;7.33;3.07;;;;;;;7.49;96.94;102403.50;5071711;28;20461;-68
2022/10/07 00:33:40;;;;;;;9.43;3.23;;;;;;;7.41;97.39;102401.16;5072926;28;20539;-68
2022/10/07 00:36:08;;;;;;;6.87;2.47;;;;;;;7.47;96.87;102389.41;5074056;28;20458;-69
2022/10/07 00:38:35;;;;;;;9.80;3.50;;;;;;;7.40;95.41;102400.34;5071025;28;20957;-68
2022/10/07 00:41:01;;;;;;;9.13;3.67;;;;;;;7.31;93.27;102393.66;5072670;28;20889;-68
2022/10/07 00:43:31;;;;;;;11.40;3.67;;;;;;;7.22;93.03;102390.47;5071671;28;20531;-68
2022/10/07 00:46:05;;;;;;;12.37;4.40;;;;;;;7.05;93.68;102386.84;5073068;28;20474;-68
2022/10/07 00:48:34;;;;;;;7.43;3.90;;;;;;;7.02;94.38;102384.59;5072216;28;20469;-68
2022/10/07 00:51:02;;;;;;;9.47;4.47;;;;;;;7.06;95.08;102380.38;5073062;28;20545;-68
2022/10/07 00:53:33;;;;;;;13.37;5.13;;;;;;;7.02;94.86;102390.81;5071672;28;20477;-68
2022/10/07 00:56:02;;;;;;;7.67;4.07;;;;;;;7.04;95.16;102380.63;5072937;28;20453;-68
2022/10/07 00:58:34;;;;;;;17.10;6.27;;;;;;;6.99;97.11;102374.28;5072737;28;20462;-68
2022/10/07 01:01:01;;;;;;;13.33;5.03;;;;;;;7.10;96.80;102378.06;5072627;28;20824;-68
2022/10/07 01:03:27;;;;;;;7.57;4.40;;;;;;;6.99;97.34;102374.28;5072361;28;20481;-68
2022/10/07 01:05:54;;;;;;;11.23;3.53;;;;;;;7.09;97.01;102366.47;5073493;28;20473;-68
2022/10/07 01:08:22;;;;;;;9.70;4.97;;;;;;;7.15;96.55;102370.09;5072663;28;20462;-68
2022/10/07 01:10:57;;;;;;;7.30;3.83;;;;;;;7.11;96.55;102369.72;5070741;28;20530;-68
2022/10/07 01:13:31;;;;;;;7.17;3.80;;;;;;;7.14;96.42;102369.28;5072454;28;20476;-68
2022/10/07 01:16:08;;;;;;;8.63;4.17;;;;;;;7.11;96.65;102369.72;5068249;28;20478;-68
2022/10/07 01:18:40;;;;;;;7.80;3.17;;;;;;;7.08;96.61;102359.41;5071959;28;20460;-67
2022/10/07 01:21:11;;;;;;;6.60;3.10;;;;;;;7.21;96.25;102352.97;5073177;28;20526;-68
2022/10/07 01:23:56;;;;;;;6.57;3.67;;;;;;;7.14;96.30;102355.78;5071749;28;21013;-68
2022/10/07 01:26:45;;;;;;;6.60;2.90;;;;;;;7.06;96.00;102350.75;5072720;28;20463;-69
2022/10/07 01:29:14;;;;;;;7.23;2.60;;;;;;;6.99;96.56;102339.25;5072107;28;20464;-69
2022/10/07 01:31:47;;;;;;;6.40;2.77;;;;;;;6.85;97.86;102341.34;5070963;28;20499;-69
2022/10/07 01:34:14;;;;;;;8.50;2.87;;;;;;;6.85;98.71;102348.63;5070435;28;20901;-69
2022/10/07 01:36:42;;;;;;;14.13;2.83;;;;;;;6.87;98.29;102339.25;5071478;28;20464;-69
2022/10/07 01:39:14;;;;;;;5.77;2.37;;;;;;;6.96;98.00;102334.34;5059168;28;20519;-69
2022/10/07 01:41:41;;;;;;;6.77;2.40;;;;;;;7.05;96.82;102338.34;5072947;28;20477;-69
2022/10/07 01:44:10;;;;;;;5.80;2.73;;;;;;;6.97;95.16;102336.00;5072509;28;20481;-69
2022/10/07 01:46:36;;;;;;;6.80;2.57;;;;;;;6.90;94.45;102329.88;5070865;28;20877;-69
2022/10/07 01:49:04;;;;;;;5.80;2.80;;;;;;;6.84;94.23;102326.25;5071668;28;20522;-69
2022/10/07 01:51:35;;;;;;;7.63;2.97;;;;;;;6.76;92.70;102326.59;5072841;28;20533;-69
2022/10/07 01:54:13;;;;;;;6.27;2.77;;;;;;;6.62;95.00;102320.59;5071478;28;20863;-69
2022/10/07 01:56:51;;;;;;;5.87;2.33;;;;;;;6.51;93.71;102306.09;5070611;28;20461;-69
2022/10/07 01:59:30;;;;;;;6.57;2.10;;;;;;;6.56;95.53;102311.59;5070962;28;20457;-69
2022/10/07 02:02:05;;;;;;;7.90;2.87;;;;;;;6.70;96.09;102314.88;5071135;28;20477;-69
2022/10/07 02:04:43;;;;;;;6.80;2.83;;;;;;;6.79;96.40;102310.78;5072666;28;20503;-70
2022/10/07 02:07:23;;;;;;;8.27;2.63;;;;;;;6.75;96.10;102308.81;5070085;28;20457;-69
2022/10/07 02:09:58;;;;;;;5.70;2.87;;;;;;;6.72;96.10;102302.00;5067993;28;20464;-67
2022/10/07 02:12:32;;;;;;;6.90;2.00;;;;;;;6.67;96.93;102301.88;5056323;28;20895;-69
2022/10/07 02:15:05;;;;;;;5.43;2.33;;;;;;;6.77;96.46;102298.59;5072162;28;20862;-69
2022/10/07 02:17:36;;;;;;;6.77;2.40;;;;;;;6.74;96.58;102294.53;5068528;28;20454;-69
2022/10/07 02:20:05;;;;;;;4.87;2.27;;;;;;;6.72;96.88;102293.91;5073045;28;20514;-69
2022/10/07 02:22:34;;;;;;;8.33;2.70;;;;;;;6.73;97.20;102287.50;5071277;28;20487;-69
2022/10/07 02:25:00;;;;;;;5.97;2.60;;;;;;;6.70;96.92;102279.88;5067150;28;20532;-70
2022/10/07 02:27:33;;;;;;;5.23;2.53;;;;;;;6.77;96.42;102285.13;5072250;28;20461;-69
2022/10/07 02:30:08;;;;;;;6.10;2.60;;;;;;;6.72;95.09;102280.44;5071997;28;20464;-70
2022/10/07 02:32:36;;;;;;;5.60;2.60;;;;;;;6.66;94.14;102281.41;5072294;28;20461;-69
2022/10/07 02:35:08;;;;;;;5.70;2.03;;;;;;;6.56;94.01;102284.66;5069678;28;20953;-69
2022/10/07 02:37:38;;;;;;;6.83;2.40;;;;;;;6.47;92.72;102272.59;5064170;28;20461;-69
2022/10/07 02:40:06;;;;;;;8.67;3.33;;;;;;;6.32;94.57;102270.31;5070470;28;20457;-69
2022/10/07 02:42:40;;;;;;;6.70;2.50;;;;;;;6.29;94.27;102267.31;5069617;28;20492;-69
2022/10/07 02:45:15;;;;;;;4.93;2.20;;;;;;;6.29;94.72;102270.81;5071091;28;20461;-70
2022/10/07 02:47:48;;;;;;;5.60;3.20;;;;;;;6.31;94.88;102260.63;5072952;28;20468;-70
2022/10/07 02:50:21;;;;;;;5.13;2.17;;;;;;;6.31;96.58;102254.44;5068423;28;20543;-68
2022/10/07 02:52:48;;;;;;;5.30;2.47;;;;;;;6.31;96.58;102265.19;5070188;28;20954;-69
2022/10/07 02:55:17;;;;;;;8.47;2.57;;;;;;;6.39;96.67;102264.84;5069168;28;20461;-69
2022/10/07 02:57:49;;;;;;;7.60;2.63;;;;;;;6.39;96.50;102270.25;5071770;28;20978;-70
2022/10/07 03:00:17;;;;;;;4.83;2.23;;;;;;;6.41;96.56;102261.94;5071442;28;20457;-70
2022/10/07 03:02:49;;;;;;;10.20;2.63;;;;;;;6.46;96.98;102262.03;5070515;28;20484;-70
2022/10/07 03:05:18;;;;;;;6.20;2.67;;;;;;;6.49;96.59;102261.59;5073306;28;20453;-70
2022/10/07 03:07:45;;;;;;;5.60;2.20;;;;;;;6.53;96.41;102260.06;5073733;28;20500;-70
2022/10/07 03:10:12;;;;;;;5.40;2.40;;;;;;;6.46;96.58;102256.66;5073494;28;20453;-69
2022/10/07 03:12:38;;;;;;;5.57;2.70;;;;;;;6.55;96.14;102253.44;5075401;28;20457;-69
2022/10/07 03:15:07;;;;;;;6.53;2.67;;;;;;;6.58;95.64;102252.13;5075468;28;21011;-69
2022/10/07 03:17:33;;;;;;;6.60;2.80;;;;;;;6.44;96.90;102250.72;5074657;28;20461;-69
2022/10/07 03:20:00;;;;;;;4.70;2.23;;;;;;;6.46;96.54;102249.44;5074210;28;20465;-69
2022/10/07 03:22:28;;;;;;;6.53;2.23;;;;;;;6.50;96.00;102250.59;5074152;28;20489;-69
2022/10/07 03:24:54;;;;;;;10.00;2.73;;;;;;;6.40;95.82;102247.66;5071162;28;20542;-69
2022/10/07 03:27:21;;;;;;;8.07;2.63;;;;;;;6.20;95.15;102247.16;5074014;28;20486;-69
2022/10/07 03:29:47;;;;;;;5.57;1.90;;;;;;;6.12;95.39;102242.94;5072796;28;20491;-69
2022/10/07 03:32:15;;;;;;;6.23;2.80;;;;;;;6.11;95.15;102238.59;5076224;28;20457;-69
2022/10/07 03:34:42;;;;;;;5.60;1.90;;;;;;;6.05;94.91;102234.94;5073041;28;20481;-69
2022/10/07 03:37:08;;;;;;;5.80;2.70;;;;;;;5.97;95.62;102237.94;5074809;28;20457;-69
2022/10/07 03:39:35;;;;;;;10.00;2.93;;;;;;;5.96;96.00;102230.13;5073963;28;20465;-69
2022/10/07 03:42:01;;;;;;;6.70;2.30;;;;;;;6.02;95.96;102237.25;5075787;28;20490;-69
2022/10/07 03:44:27;;;;;;;6.13;2.20;;;;;;;5.98;97.12;102226.16;5075036;28;20481;-69
2022/10/07 03:46:54;;;;;;;32.33;2.77;;;;;;;5.96;98.24;102222.06;5073136;28;20462;-69
2022/10/07 03:49:22;;;;;;;5.37;2.17;;;;;;;6.19;96.90;102216.72;5073874;28;20461;-69
2022/10/07 03:51:48;;;;;;;4.40;1.73;;;;;;;6.26;97.09;102220.13;5072905;28;20464;-69
2022/10/07 03:54:15;;;;;;;5.43;2.40;;;;;;;6.29;97.11;102218.88;5074908;28;20515;-70
2022/10/07 03:56:41;;;;;;;5.63;2.23;;;;;;;6.40;96.19;102218.03;5073870;28;20465;-69
2022/10/07 03:59:08;;;;;;;5.37;2.63;;;;;;;6.38;96.37;102208.59;5074629;28;20457;-69
2022/10/07 04:01:34;;;;;;;6.30;2.20;;;;;;;6.25;96.87;102207.75;5074333;28;20487;-69
2022/10/07 04:04:00;;;;;;;5.40;2.70;;;;;;;6.26;96.67;102205.88;5074164;28;20496;-69
2022/10/07 04:06:28;;;;;;;6.00;2.23;;;;;;;6.30;96.17;102215.94;5073278;28;20954;-69
2022/10/07 04:08:55;;;;;;;7.17;2.63;;;;;;;6.17;97.09;102210.75;5073650;28;20461;-69
2022/10/07 04:11:23;;;;;;;4.40;1.90;;;;;;;6.15;96.76;102206.66;5072412;28;20449;-69
2022/10/07 04:13:49;;;;;;;4.83;2.63;;;;;;;6.17;95.24;102205.38;5073268;28;20477;-69
2022/10/07 04:16:16;;;;;;;5.57;1.90;;;;;;;6.00;95.34;102197.16;5069766;28;20457;-69
2022/10/07 04:18:42;;;;;;;6.90;2.00;;;;;;;6.04;95.11;102208.28;5073333;28;20472;-69
2022/10/07 04:21:09;;;;;;;7.40;2.20;;;;;;;5.85;94.23;102199.44;5074607;28;20881;-69
2022/10/07 04:23:40;;;;;;;10.10;2.97;;;;;;;5.86;94.82;102208.31;5074125;28;20928;-69
2022/10/07 04:26:08;;;;;;;5.57;1.77;;;;;;;5.82;94.90;102202.56;5074151;28;20862;-69
2022/10/07 04:28:34;;;;;;;6.73;2.23;;;;;;;5.87;95.02;102204.56;5074174;28;20456;-69
2022/10/07 04:31:03;;;;;;;8.30;2.70;;;;;;;5.85;96.19;102201.31;5072113;28;20461;-69
2022/10/07 04:33:29;;;;;;;8.20;3.10;;;;;;;5.82;97.33;102189.94;5072544;28;20530;-69
2022/10/07 04:35:56;;;;;;;5.20;2.37;;;;;;;5.90;97.13;102191.50;5073177;28;20465;-69
2022/10/07 04:38:23;;;;;;;5.10;1.97;;;;;;;5.92;97.08;102189.41;5072168;28;20526;-69
2022/10/07 04:40:50;;;;;;;11.63;2.53;;;;;;;6.01;97.23;102184.53;5072658;28;20493;-69
2022/10/07 04:43:19;;;;;;;7.10;2.47;;;;;;;5.96;97.47;102181.72;5072026;28;20553;-69
2022/10/07 04:45:46;;;;;;;14.13;1.90;;;;;;;6.04;97.46;102176.00;5072849;28;20461;-68
2022/10/07 04:48:13;;;;;;;4.40;2.33;;;;;;;6.01;97.56;102182.66;5072025;28;20507;-71
2022/10/07 04:50:39;;;;;;;6.27;2.57;;;;;;;5.98;97.59;102183.13;5071599;28;20510;-73
2022/10/07 04:53:06;;;;;;;13.80;2.47;;;;;;;6.00;97.45;102185.59;5072753;28;20485;-69
2022/10/07 04:55:36;;;;;;;6.27;2.70;;;;;;;5.93;95.70;102168.72;5073186;28;20891;-68
2022/10/07 04:58:04;;;;;;;6.50;2.60;;;;;;;5.88;95.60;102171.25;5071590;28;20891;-69
2022/10/07 05:00:31;;;;;;;7.90;2.57;;;;;;;5.91;95.79;102165.44;5068238;28;20514;-68
2022/10/07 05:02:57;;;;;;;5.80;2.30;;;;;;;5.75;96.06;102175.78;5073728;28;20504;-68
2022/10/07 05:05:24;;;;;;;6.93;2.70;;;;;;;5.88;96.80;102172.06;5070361;28;20465;-68
2022/10/07 05:07:52;;;;;;;6.90;2.40;;;;;;;5.88;97.79;102171.25;5072320;28;20457;-68
2022/10/07 05:10:19;;;;;;;5.60;2.33;;;;;;;5.89;97.87;102162.13;5071145;28;20464;-68
2022/10/07 05:12:46;;;;;;;7.20;1.87;;;;;;;5.93;98.14;102152.59;5071299;28;21008;-68
2022/10/07 05:15:13;;;;;;;4.70;2.30;;;;;;;6.10;97.12;102160.81;5072382;28;20465;-68
2022/10/07 05:17:40;;;;;;;4.50;1.80;;;;;;;6.12;97.00;102159.53;5071896;28;20510;-69
2022/10/07 05:20:08;;;;;;;4.93;2.10;;;;;;;6.02;97.02;102154.72;5066996;28;20458;-68
2022/10/07 05:22:34;;;;;;;7.57;2.30;;;;;;;6.13;96.32;102146.91;5072550;28;20535;-68
2022/10/07 05:25:01;;;;;;;5.70;2.03;;;;;;;6.19;95.76;102157.53;5069794;28;20484;-69
2022/10/07 05:27:27;;;;;;;6.10;2.37;;;;;;;6.13;94.59;102153.09;5071627;28;20484;-69
2022/10/07 05:29:53;;;;;;;6.00;2.47;;;;;;;6.01;92.82;102150.38;5071031;28;20950;-68
2022/10/07 05:32:21;;;;;;;5.83;1.77;;;;;;;5.87;93.62;102142.72;5069840;28;20461;-73
2022/10/07 05:34:48;;;;;;;6.10;2.60;;;;;;;5.74;94.27;102139.19;5072224;28;20489;-71
2022/10/07 05:37:14;;;;;;;5.10;2.30;;;;;;;5.61;95.27;102128.63;5073467;28;20530;-69
2022/10/07 05:39:41;;;;;;;5.80;2.37;;;;;;;5.63;96.37;102131.13;5071238;28;20454;-69
2022/10/07 05:42:08;;;;;;;5.67;2.00;;;;;;;5.58;95.90;102134.50;5072126;28;20534;-69
2022/10/07 05:44:36;;;;;;;5.83;2.10;;;;;;;5.59;96.22;102133.44;5070852;28;21019;-68
2022/10/07 05:47:03;;;;;;;4.77;1.83;;;;;;;5.60;96.96;102128.88;5070728;28;20946;-69
2022/10/07 05:49:31;;;;;;;8.70;2.17;;;;;;;5.62;98.60;102124.06;5072048;28;20461;-68
2022/10/07 05:51:58;;;;;;;7.60;1.97;;;;;;;5.66;98.90;102126.06;5071145;28;20464;-69
2022/10/07 05:54:24;;;;;;;5.70;1.93;;;;;;;5.86;98.29;102133.84;5072122;28;20484;-69
2022/10/07 05:56:51;;;;;;;4.63;2.00;;;;;;;5.85;99.28;102137.59;5069279;28;20942;-69
2022/10/07 05:59:19;;;;;;;5.67;1.90;;;;;;;5.83;100.00;102132.44;5072199;28;20469;-69
2022/10/07 06:01:45;;;;;;;6.57;2.37;;;;;;;5.94;100.00;102130.03;5067176;28;20453;-69
2022/10/07 06:04:12;;;;;;;5.00;2.37;;;;;;;6.12;99.10;102127.25;5070619;28;20473;-69
2022/10/07 06:06:40;;;;;;;5.87;2.30;;;;;;;6.17;99.30;102126.56;5070879;28;20461;-69
2022/10/07 06:14:34;;;;;;;6.50;2.57;;;;;;;6.45;98.92;102128.53;5071830;28;20926;-69
2022/10/07 06:17:01;;;;;;;8.23;3.20;;;;;;;6.49;99.47;102137.78;5071959;28;20480;-71
2022/10/07 06:19:27;;;;;;;6.70;2.70;;;;;;;6.54;99.73;102132.50;5071913;28;20472;-69
2022/10/07 06:21:55;;;;;;;4.63;2.00;;;;;;;6.56;100.00;102141.19;5067197;28;20464;-69
2022/10/07 06:24:21;;;;;;;9.13;2.77;;;;;;;6.64;99.40;102135.44;5069791;28;20485;-69
2022/10/07 06:26:54;;;;;;;6.70;2.97;;;;;;;6.73;99.31;102128.63;5070240;28;20859;-73
2022/10/07 06:29:25;;;;;;;8.60;3.10;;;;;;;6.77;99.63;102116.31;5072365;28;20507;-69
2022/10/07 06:31:51;;;;;;;5.80;2.70;;;;;;;6.91;100.00;102127.66;5069992;28;20465;-68
2022/10/07 06:34:18;;;;;;;9.37;3.87;;;;;;;7.04;100.00;102127.38;5073544;28;20568;-67
2022/10/07 06:36:44;;;;;;;7.37;3.67;;;;;;;7.25;100.00;102128.56;5073565;28;20509;-67
2022/10/07 06:39:13;;;;;;;9.40;3.37;;;;;;;7.49;100.00;102141.97;5071681;28;20457;-67
2022/10/07 06:41:42;;;;;;;6.90;3.40;;;;;;;7.68;100.00;102129.09;5073571;28;20465;-67
2022/10/07 06:44:09;;;;;;;13.80;3.23;;;;;;;7.88;100.00;102132.13;5074602;28;20504;-68
2022/10/07 06:46:35;;;;;;;7.60;3.03;;;;;;;8.10;100.00;102134.91;5074634;28;20506;-67
2022/10/07 06:49:02;;;;;;;8.27;3.60;;;;;;;8.27;100.00;102132.19;5075024;28;20837;-67
2022/10/07 06:51:29;;;;;;;7.00;3.17;;;;;;;8.40;100.00;102128.34;5070312;28;20500;-67
2022/10/07 06:53:56;;;;;;;8.53;3.40;;;;;;;8.56;100.00;102138.31;5072805;28;20477;-67
2022/10/07 06:56:25;;;;;;;7.10;2.80;;;;;;;8.68;100.00;102136.34;5071550;28;20576;-67
2022/10/07 06:58:52;;;;;;;7.30;2.80;;;;;;;8.82;100.00;102140.28;5074248;28;20437;-68
2022/10/07 07:01:18;;;;;;;11.27;3.60;;;;;;;8.95;100.00;102130.19;5074325;28;20875;-68
2022/10/07 07:03:45;;;;;;;9.20;4.00;;;;;;;9.03;100.00;102132.41;5071761;28;20869;-66
2022/10/07 07:06:12;;;;;;;6.97;3.37;;;;;;;9.17;100.00;102131.00;5073271;28;20453;-67
2022/10/07 07:08:40;;;;;;;6.53;2.83;;;;;;;9.28;100.00;102132.72;5072272;28;20457;-68
2022/10/07 07:11:34;;;;;;;6.70;3.00;;;;;;;9.37;100.00;102137.69;5072786;28;20461;-69
2022/10/07 07:13:56;;;;;;;6.90;3.27;;;;;;;9.38;100.00;102128.50;5073343;28;20472;-68
2022/10/07 07:16:24;;;;;;;8.20;3.57;;;;;;;9.44;99.66;102130.19;5075239;28;20441;-67
2022/10/07 07:18:51;;;;;;;7.27;2.87;;;;;;;9.50;98.76;102126.47;5075093;28;20459;-67
2022/10/07 07:21:18;;;;;;;11.90;3.80;;;;;;;9.65;98.85;102132.03;5073197;28;21041;-67
2022/10/07 07:23:44;;;;;;;6.53;3.27;;;;;;;9.69;97.01;102132.31;5073628;28;20508;-67
2022/10/07 07:26:11;;;;;;;17.40;3.60;;;;;;;9.80;97.66;102137.56;5073403;28;20465;-69
2022/10/07 07:28:38;;;;;;;6.93;3.07;;;;;;;9.93;97.96;102133.63;5074158;28;20466;-67
2022/10/07 07:31:09;;;;;;;8.37;3.57;;;;;;;10.03;98.31;102130.16;5074315;28;20492;-67
2022/10/07 07:33:37;;;;;;;11.43;3.00;;;;;;;10.14;98.30;102131.88;5072498;28;20544;-66
2022/10/07 07:36:11;;;;;;;6.87;2.87;;;;;;;10.28;97.94;102126.88;5075860;28;20468;-67
2022/10/07 07:38:38;;;;;;;6.80;3.33;;;;;;;10.38;98.06;102123.41;5069720;28;20551;-67
2022/10/07 07:41:06;;;;;;;10.17;3.47;;;;;;;10.38;99.11;102123.41;5072149;28;20487;-68
2022/10/07 07:43:32;;;;;;;8.07;3.50;;;;;;;10.51;98.61;102117.53;5070818;28;20496;-67
2022/10/07 07:45:58;;;;;;;7.27;2.97;;;;;;;10.64;98.53;102118.94;5061713;28;20461;-68
2022/10/07 07:48:27;;;;;;;8.17;3.03;;;;;;;10.75;97.76;102117.91;5070757;28;20946;-67
2022/10/07 07:50:53;;;;;;;8.50;2.87;;;;;;;10.91;96.70;102121.50;5066592;28;20524;-67
2022/10/07 07:53:20;;;;;;;6.33;2.97;;;;;;;11.03;96.09;102125.63;5070170;28;20477;-68
2022/10/07 07:55:52;;;;;;;10.20;3.13;;;;;;;11.14;94.76;102118.31;5075099;28;20507;-68
2022/10/07 07:58:20;;;;;;;8.40;3.00;;;;;;;11.30;93.75;102122.72;5073214;28;20460;-67
2022/10/07 08:00:56;;;;;;;6.37;2.80;;;;;;;11.46;92.62;102120.03;5075134;28;20465;-70
2022/10/07 08:03:23;;;;;;;6.50;2.93;;;;;;;11.58;90.96;102117.88;5070888;28;20485;-67
2022/10/07 08:05:50;;;;;;;6.30;2.53;;;;;;;11.71;90.40;102111.91;5063849;28;20829;-67
2022/10/07 08:08:17;;;;;;;10.10;2.70;;;;;;;11.84;89.45;102110.59;5072124;28;20498;-67
2022/10/07 08:10:43;;;;;;;6.60;2.30;;;;;;;12.04;88.67;102109.75;5075167;28;20492;-68
2022/10/07 08:13:09;;;;;;;6.43;2.53;;;;;;;12.18;87.76;102105.41;5075019;28;20457;-67
2022/10/07 08:15:36;;;;;;;4.90;2.30;;;;;;;12.27;86.58;102101.03;5074774;28;20555;-67
2022/10/07 08:18:04;;;;;;;5.50;2.10;;;;;;;12.35;86.53;102103.19;5074939;28;20491;-67
2022/10/07 08:20:31;;;;;;;5.83;2.57;;;;;;;12.38;86.91;102104.53;5074947;28;20451;-67
2022/10/07 08:22:59;;;;;;;7.50;3.00;;;;;;;12.49;85.85;102099.91;5074975;28;20489;-67
2022/10/07 08:25:27;;;;;;;7.20;1.90;;;;;;;12.60;85.91;102101.47;5074944;28;20869;-67
2022/10/07 08:27:54;;;;;;;6.10;1.93;;;;;;;12.77;85.73;102090.28;5074821;28;20449;-67
2022/10/07 08:30:20;;;;;;;5.47;2.00;;;;;;;12.87;85.28;102099.19;5074832;28;20438;-68
2022/10/07 08:32:47;;;;;;;11.43;2.70;;;;;;;12.90;85.17;102081.50;5074256;28;20456;-68
2022/10/07 08:35:13;;;;;;;5.73;2.10;;;;;;;12.99;84.83;102090.72;5074339;28;20421;-67
2022/10/07 08:37:39;;;;;;;8.37;2.73;;;;;;;13.14;82.15;102093.34;5074190;28;20974;-67
2022/10/07 08:40:14;;;;;;;7.53;2.47;;;;;;;13.27;82.14;102083.78;5074632;28;20438;-67
2022/10/07 08:42:42;;;;;;;5.83;1.87;;;;;;;13.35;81.94;102074.19;5074107;28;20808;-68
2022/10/07 08:45:15;;;;;;;5.70;2.30;;;;;;;13.41;81.30;102072.25;5074422;28;20540;-67
2022/10/07 08:47:44;;;;;;;4.93;2.30;;;;;;;13.49;81.56;102077.09;5074152;28;20429;-67
2022/10/07 08:50:15;;;;;;;5.40;1.93;;;;;;;13.59;81.28;102077.00;5074302;28;20452;-66
2022/10/07 08:52:50;;;;;;;6.90;1.83;;;;;;;13.72;80.85;102073.63;5074154;28;20422;-67
2022/10/07 08:55:25;;;;;;;8.00;2.73;;;;;;;13.82;80.37;102065.41;5074313;28;20455;-67
2022/10/07 08:58:17;;;;;;;5.23;1.67;;;;;;;14.00;78.18;102068.50;5074184;28;20817;-66
2022/10/07 09:00:49;;;;;;;4.70;1.80;;;;;;;14.17;79.16;102060.69;5074216;28;20437;-66
2022/10/07 09:03:27;;;;;;;6.70;1.83;;;;;;;14.19;79.83;102061.22;5073679;28;20555;-65
2022/10/07 09:05:57;;;;;;;5.70;1.83;;;;;;;14.26;77.85;102055.44;5074242;28;20433;-67
2022/10/07 09:08:30;;;;;;;18.33;2.83;;;;;;;14.44;76.25;102051.13;5074213;28;20437;-66
2022/10/07 09:11:14;;;;;;;4.90;1.70;;;;;;;14.57;75.34;102050.47;5074322;28;20429;-66
2022/10/07 09:13:46;;;;;;;5.67;1.93;;;;;;;14.70;75.29;102055.19;5073786;28;20523;-65
2022/10/07 09:16:17;;;;;;;5.63;2.07;;;;;;;14.79;72.17;102044.44;5073861;28;20435;-66
2022/10/07 09:18:49;;;;;;;7.70;2.27;;;;;;;14.89;71.23;102045.09;5073625;28;20780;-66
2022/10/07 09:21:22;;;;;;;6.37;1.40;;;;;;;15.02;69.83;102042.75;5073802;28;20425;-66
2022/10/07 09:23:54;;;;;;;9.07;2.07;;;;;;;15.06;70.60;102041.06;5073208;28;20493;-66
2022/10/07 09:26:22;;;;;;;4.70;1.30;;;;;;;15.18;70.79;102033.22;5073627;28;20428;-66
2022/10/07 09:28:49;;;;;;;5.00;1.20;;;;;;;15.27;71.07;102026.00;5073279;28;20803;-66
2022/10/07 09:31:16;;;;;;;4.77;1.20;;;;;;;15.31;68.46;102027.00;5073619;28;20476;-66
2022/10/07 09:33:44;;;;;;;6.13;2.17;;;;;;;15.47;69.10;102024.03;5073153;28;20470;-66
2022/10/07 09:36:15;;;;;;;9.80;1.70;;;;;;;15.59;66.73;102021.66;5073570;28;20537;-66
2022/10/07 09:38:44;;;;;;;3.70;1.10;;;;;;;15.66;66.09;102019.38;5073554;28;20434;-67
2022/10/07 09:41:18;;;;;;;4.10;1.20;;;;;;;15.67;66.40;102012.81;5073423;28;20861;-66
2022/10/07 09:43:59;;;;;;;6.00;1.07;;;;;;;15.75;65.96;102016.75;5073245;28;20484;-66
2022/10/07 09:46:42;;;;;;;3.60;1.10;;;;;;;15.90;66.29;102013.75;5073392;28;20433;-67
2022/10/07 09:49:30;;;;;;;3.67;1.33;;;;;;;15.97;65.26;101997.75;5073347;28;20432;-67
2022/10/07 09:52:02;;;;;;;3.47;1.20;;;;;;;16.08;66.66;101995.66;5072845;28;20970;-67
2022/10/07 09:54:30;;;;;;;3.70;1.20;;;;;;;16.18;64.58;102003.63;5072989;28;20557;-68
2022/10/07 09:56:59;;;;;;;3.30;0.90;;;;;;;16.25;65.31;101997.78;5072864;28;20922;-68
2022/10/07 09:59:28;;;;;;;4.87;1.10;;;;;;;16.30;62.50;101986.75;5073057;28;20437;-66
2022/10/07 10:01:57;;;;;;;3.70;1.37;;;;;;;16.34;65.04;101983.09;5073261;28;20458;-66
2022/10/07 10:04:29;;;;;;;6.20;1.20;;;;;;;16.49;64.28;101983.88;5073996;28;20546;-64
2022/10/07 10:07:00;;;;;;;6.87;1.67;;;;;;;16.58;64.17;101990.22;5073957;28;20426;-68
2022/10/07 10:09:27;;;;;;;9.83;1.10;;;;;;;16.70;62.69;101981.50;5073893;28;20445;-67
2022/10/07 10:12:06;;;;;;;5.73;1.67;;;;;;;16.84;58.98;101979.56;5073132;28;20491;-67
2022/10/07 10:14:46;;;;;;;5.17;1.10;;;;;;;16.80;62.10;101986.75;5072242;28;20467;-70
2022/10/07 10:17:37;;;;;;;6.87;1.20;;;;;;;16.87;60.05;101981.69;5072834;28;20445;-70
2022/10/07 10:20:29;;;;;;;11.37;1.30;;;;;;;16.96;59.22;101976.28;5072820;28;20418;-70
2022/10/07 10:22:57;;;;;;;8.00;1.57;;;;;;;17.03;60.17;101973.91;5067205;28;20453;-70
2022/10/07 10:28:31;;;;;;;14.90;1.27;;;;;;;17.07;59.22;101959.28;5072398;28;20491;-69
2022/10/07 10:31:06;;;;;;;10.47;1.53;;;;;;;17.14;59.84;101954.19;5072522;28;20902;-69
2022/10/07 10:33:40;;;;;;;3.93;1.07;;;;;;;17.28;59.75;101953.31;5072382;28;20522;-69
2022/10/07 10:36:12;;;;;;;5.47;1.50;;;;;;;17.38;58.04;101951.09;5072744;28;20440;-69
2022/10/07 10:38:47;;;;;;;6.60;0.83;;;;;;;17.52;57.50;101944.75;5072704;28;20444;-69
2022/10/07 10:41:24;;;;;;;3.43;1.00;;;;;;;17.61;56.98;101938.16;5068570;28;20448;-69
2022/10/07 10:43:59;;;;;;;3.67;0.97;;;;;;;17.77;57.88;101935.88;5072144;28;20496;-69
2022/10/07 10:46:38;;;;;;;4.60;1.47;;;;;;;17.84;58.95;101936.22;5070163;28;20468;-69
2022/10/07 10:49:18;;;;;;;3.90;0.87;;;;;;;17.94;55.59;101929.63;5070962;28;20463;-69
2022/10/07 10:52:01;;;;;;;3.67;0.93;;;;;;;18.03;54.33;101921.44;5071703;28;20514;-69
2022/10/07 10:54:34;;;;;;;3.87;0.80;;;;;;;18.23;55.58;101914.53;5070574;28;20479;-69
2022/10/07 10:57:11;;;;;;;6.13;1.30;;;;;;;18.43;54.04;101919.41;5072696;28;20475;-69
2022/10/07 10:59:55;;;;;;;3.40;0.93;;;;;;;18.60;54.59;101902.16;5071467;28;20534;-69
2022/10/07 11:02:37;;;;;;;4.07;1.13;;;;;;;18.73;52.64;101890.22;5071243;28;20480;-69
2022/10/07 11:05:12;;;;;;;3.33;1.13;;;;;;;19.12;52.51;101891.13;5072274;28;20851;-69
2022/10/07 11:07:43;;;;;;;3.07;0.70;;;;;;;19.70;49.68;101886.91;5071780;28;20457;-69
2022/10/07 11:10:19;;;;;;;3.30;0.83;;;;;;;20.62;47.00;101886.94;5072574;28;20430;-69
2022/10/07 11:12:53;;;;;;;3.17;0.63;;;;;;;21.20;44.52;101877.94;5070315;28;21022;-69
2022/10/07 11:15:22;;;;;;;3.17;0.60;;;;;;;22.27;43.49;101881.41;5071542;28;20544;-69
2022/10/07 11:17:52;;;;;;;3.60;0.87;;;;;;;22.91;42.28;101889.59;5072472;28;20441;-69
2022/10/07 11:20:24;;;;;;;5.10;0.80;;;;;;;23.38;41.35;101883.34;5071752;28;20526;-69
2022/10/07 11:22:56;;;;;;;3.30;0.83;;;;;;;24.16;39.50;101875.28;5071120;28;20457;-69
2022/10/07 11:25:29;;;;;;;3.97;1.10;;;;;;;24.41;39.00;101870.31;5071151;28;20982;-69
2022/10/07 11:28:01;;;;;;;4.97;0.90;;;;;;;24.58;38.53;101875.41;5075851;28;20441;-69
2022/10/07 11:30:34;;;;;;;4.47;1.13;;;;;;;24.76;38.76;101867.44;5075479;28;20441;-70
2022/10/07 11:33:07;;;;;;;5.67;0.87;;;;;;;24.67;37.86;101862.13;5075566;28;20477;-69
2022/10/07 11:35:37;;;;;;;10.20;1.27;;;;;;;24.97;37.69;101852.38;5073172;28;20453;-69
2022/10/07 11:38:14;;;;;;;3.77;1.03;;;;;;;25.15;37.21;101854.34;5070466;28;20465;-69
2022/10/07 11:40:45;;;;;;;3.00;0.70;;;;;;;25.07;36.78;101851.78;5075597;28;20847;-70
2022/10/07 11:43:18;;;;;;;3.30;0.80;;;;;;;25.36;36.77;101848.31;5074025;28;20464;-70
2022/10/07 11:45:50;;;;;;;4.63;0.80;;;;;;;25.79;36.61;101842.66;5066964;28;20469;-71
2022/10/07 11:48:23;;;;;;;3.40;0.80;;;;;;;25.32;36.69;101835.56;5072402;28;21007;-73
2022/10/07 11:50:55;;;;;;;6.40;1.10;;;;;;;25.76;34.08;101841.44;5074877;28;20495;-69